Terminal Aerodrome Forecast
Issued by NWS Detroit/Pontiac, MI

Home | Current Version | Previous Version | Text Only | Print | Product List | Glossary On
Versions: 1 2 3 4 5 6 7 8 9 10 11 12 13 14 15 16 17 18 19 20 21 22 23 24 25 26 27
300
FTUS43 KDTX 111728
TAFDTW
TAF
KDTW 111728Z 1118/1224 30013KT P6SM SCT035 BKN045
     FM120100 25006KT P6SM SCT045
     FM120800 23006KT P6SM BKN150
     FM121500 24013G20KT P6SM BKN030
     FM121800 26018G28KT P6SM -SHSN BKN025 OVC030 PROB30 1219/1223
      3SM -SHSN BKN022 OVC025=

USA.gov is the U.S. government's official web portal to all federal, state and local government web resources and services.